Pagrindinis puslapis
METAR-TAF:

METAR-TAF

Oro uostai :

Pchenjanas, Šiaurės Korėja

platuma: 39-02N, ilguma: 125-47E, Aukštis: 36 m

METAR: trūkstamas

Laikas: 17:04 (08:04 UTC)

Prognozė

Ataskaita buvo paskelbta 4 valandos ir 14 minutes, ne 03:50 UTC
Prognozė galioja nuo 19 metu 06 UTC su 20 metu 06 UTC
Vėjas 8 kt iš Pietų/Pietvakarių
Matomumas 10 km arba daugiau
nėra debesų žemiau 1500 m ir nėra kamuolinių lietaus debesų
Laikinai
nuo 19 metu 18 UTC su 19 metu 24 UTC
Matomumas: 1000 m
rūkana

TAF: ZKPY 190350Z 1906/2006 20004MPS CAVOK TX05/2006Z TNM12/1921Z TEMPO 1918/1924 1000 BR

Orai ataskaitas ir orų prognozės (METAR, TAF).

turimą stotys yra geltonos ir raudonos taškus žemėlapyje.

Perkelti pele per norėdami pamatyti stoties vardą.

Tada spustelėkite, norėdami matyti oro stebėjimo ir prognozės.

Norėdami pakeisti žemėlapį: spustelėkite ant žalios mygtukų su juodo kryžiaus žemyn,; žalią mygtuką su brūkšneliu, jei norite nutolinti; arba žalių rodyklių gretimoms žemėlapius.


METAR-TAF: